Time;durP1;ratioP1;P1;durP2;ratioP2;P2;SDS_P1;SDS_P2;PMS_P1;PMS_P2;Temp;Humidity;BMP_temperature;BMP_pressure;BME280_temperature;BME280_humidity;BME280_pressure;Samples;Min_cycle;Max_cycle;Signal;HPM_P1;HPM_P2
2021/12/21 00:01:37;;;;;;;8.53;5.33;;;;;;;2.18;68.23;95010.91;5055775;28;20198;-78
2021/12/21 00:04:04;;;;;;;4.90;4.05;;;;;;;2.05;69.01;95025.41;5037601;28;20481;-78
2021/12/21 00:06:31;;;;;;;4.78;4.38;;;;;;;2.05;69.01;95027.16;5054053;28;20199;-78
2021/12/21 00:08:58;;;;;;;6.43;4.47;;;;;;;1.98;70.04;95034.34;5056552;28;20190;-78
2021/12/21 00:11:26;;;;;;;6.87;4.80;;;;;;;1.88;69.58;95025.38;5055115;28;20209;-78
2021/12/21 00:14:10;;;;;;;5.82;4.32;;;;;;;1.91;69.74;95021.81;5055559;28;20803;-78
2021/12/21 00:19:39;;;;;;;8.05;5.35;;;;;;;1.91;70.35;95019.22;5055799;28;20197;-78
2021/12/21 00:22:18;;;;;;;10.57;6.60;;;;;;;1.90;70.03;95026.13;5055732;28;20339;-78
2021/12/21 00:24:48;;;;;;;8.20;5.80;;;;;;;1.96;70.11;95025.84;5055674;28;20206;-78
2021/12/21 00:27:16;;;;;;;11.75;7.72;;;;;;;1.97;69.59;95034.44;5055990;28;20621;-78
2021/12/21 00:29:43;;;;;;;4.53;4.05;;;;;;;1.94;71.41;95034.59;5055490;28;20195;-77
2021/12/21 00:32:10;;;;;;;12.65;6.15;;;;;;;1.92;71.12;95037.25;5055825;28;20210;-78
2021/12/21 00:34:38;;;;;;;6.00;4.75;;;;;;;1.94;72.12;95038.00;5055297;28;20203;-77
2021/12/21 00:37:05;;;;;;;6.63;4.80;;;;;;;1.90;71.18;95036.50;5053528;28;20721;-78
2021/12/21 00:39:32;;;;;;;8.00;6.30;;;;;;;1.91;72.05;95042.50;5055036;28;20425;-78
2021/12/21 00:41:59;;;;;;;7.95;5.28;;;;;;;1.93;71.84;95038.09;5055321;28;20454;-78
2021/12/21 00:44:32;;;;;;;9.10;5.47;;;;;;;1.88;71.92;95043.50;5055269;28;20214;-78
2021/12/21 00:46:59;;;;;;;8.30;5.30;;;;;;;1.90;72.10;95043.41;5055596;28;20507;-78
2021/12/21 00:49:27;;;;;;;6.03;5.30;;;;;;;1.94;72.00;95042.34;5055197;28;20432;-77
2021/12/21 00:51:54;;;;;;;4.88;3.95;;;;;;;1.95;71.70;95041.44;5055442;28;20442;-78
2021/12/21 00:54:22;;;;;;;7.38;5.53;;;;;;;1.95;72.37;95044.03;5055928;28;20187;-78
2021/12/21 00:56:48;;;;;;;6.28;4.55;;;;;;;2.02;71.85;95045.38;5055175;28;20198;-78
2021/12/21 00:59:15;;;;;;;7.03;6.35;;;;;;;2.05;71.58;95045.28;5019924;28;20194;-78
2021/12/21 01:01:44;;;;;;;6.80;5.40;;;;;;;2.04;71.37;95046.19;5054647;28;20228;-78
2021/12/21 01:04:19;;;;;;;5.57;4.47;;;;;;;2.03;72.05;95047.09;5036200;28;20233;-78
2021/12/21 01:06:59;;;;;;;5.63;5.10;;;;;;;1.84;72.84;95042.81;5055270;28;20426;-78
2021/12/21 01:09:48;;;;;;;4.97;4.57;;;;;;;1.70;73.49;95050.38;5055147;28;20210;-78
2021/12/21 01:12:25;;;;;;;7.32;5.00;;;;;;;1.62;73.59;95049.06;5055078;28;20456;-78
2021/12/21 01:15:05;;;;;;;6.20;5.22;;;;;;;1.66;74.78;95053.19;5054648;28;20206;-78
2021/12/21 01:17:46;;;;;;;10.48;5.45;;;;;;;1.61;73.71;95040.47;5054840;28;20187;-78
2021/12/21 01:20:26;;;;;;;6.13;5.03;;;;;;;1.63;73.20;95056.75;5055194;28;20357;-78
2021/12/21 01:23:11;;;;;;;8.07;5.45;;;;;;;1.59;73.82;95051.81;5053503;28;20222;-78
2021/12/21 01:25:44;;;;;;;6.47;5.82;;;;;;;1.59;73.86;95055.22;5055269;28;20212;-78
2021/12/21 01:28:18;;;;;;;8.32;5.60;;;;;;;1.54;73.66;95059.78;5054540;28;20561;-78
2021/12/21 01:30:52;;;;;;;12.23;7.77;;;;;;;1.71;73.69;95059.81;5053203;28;20931;-78
2021/12/21 01:33:36;;;;;;;4.88;4.40;;;;;;;1.76;72.73;95059.63;5054566;28;20518;-78
2021/12/21 01:36:08;;;;;;;9.57;6.05;;;;;;;1.71;73.88;95057.22;5054348;28;20202;-78
2021/12/21 01:38:43;;;;;;;5.70;5.10;;;;;;;1.65;72.82;95044.59;5054659;28;20195;-78
2021/12/21 01:41:23;;;;;;;5.97;4.57;;;;;;;1.62;72.91;95054.25;5054974;28;20449;-78
2021/12/21 01:44:01;;;;;;;7.45;4.07;;;;;;;1.46;72.47;95061.91;5054119;28;20206;-78
2021/12/21 01:49:39;;;;;;;7.43;5.38;;;;;;;1.41;72.73;95058.66;5054481;28;20189;-78
2021/12/21 01:52:07;;;;;;;8.75;6.65;;;;;;;1.32;72.76;95059.09;5054299;28;20245;-78
2021/12/21 01:54:34;;;;;;;15.25;8.57;;;;;;;1.31;72.17;95063.44;5054051;28;20202;-77
2021/12/21 01:57:01;;;;;;;6.18;5.57;;;;;;;1.21;72.10;95057.84;5019146;28;20195;-78
2021/12/21 01:59:28;;;;;;;9.40;5.32;;;;;;;1.12;71.30;95050.50;5053604;28;20207;-78
2021/12/21 02:01:55;;;;;;;5.22;4.40;;;;;;;1.13;70.99;95049.59;5053728;28;20197;-77
2021/12/21 02:04:24;;;;;;;8.88;6.10;;;;;;;1.11;72.24;95045.41;5054155;28;20218;-78
2021/12/21 02:06:52;;;;;;;8.07;4.70;;;;;;;1.10;71.26;95038.56;5035386;28;20201;-78
2021/12/21 02:09:19;;;;;;;10.75;7.00;;;;;;;1.16;74.26;95038.31;5053586;28;20183;-77
2021/12/21 02:11:47;;;;;;;6.00;5.40;;;;;;;1.10;70.92;95049.72;5053602;28;20282;-77
2021/12/21 02:14:13;;;;;;;6.53;4.75;;;;;;;1.11;70.55;95051.41;5053715;28;20217;-78
2021/12/21 02:16:51;;;;;;;7.50;6.45;;;;;;;1.11;70.47;95048.81;5053593;28;20188;-78
2021/12/21 02:19:23;;;;;;;11.35;4.75;;;;;;;1.09;69.93;95049.81;5054188;28;20194;-77
2021/12/21 02:21:55;;;;;;;5.43;4.40;;;;;;;1.05;70.33;95043.94;5053696;28;20702;-78
2021/12/21 02:24:44;;;;;;;6.40;4.28;;;;;;;0.95;70.12;95044.44;5053475;28;20624;-78
2021/12/21 02:27:26;;;;;;;4.47;4.07;;;;;;;0.99;70.16;95041.66;5053625;28;20547;-77
2021/12/21 02:29:53;;;;;;;6.35;3.72;;;;;;;1.06;69.91;95048.19;5053939;28;20217;-78
2021/12/21 02:32:20;;;;;;;4.40;4.00;;;;;;;1.02;70.64;95053.59;5053300;28;20202;-78
2021/12/21 02:34:47;;;;;;;4.80;4.38;;;;;;;1.03;69.05;95056.09;5053494;28;20202;-78
2021/12/21 02:37:15;;;;;;;5.22;4.20;;;;;;;1.01;68.14;95057.91;5053673;28;20187;-78
2021/12/21 02:39:42;;;;;;;4.82;4.32;;;;;;;1.03;69.14;95050.09;5053409;28;20217;-78
2021/12/21 02:42:09;;;;;;;6.13;4.72;;;;;;;1.02;69.13;95049.25;5054265;28;20207;-78
2021/12/21 02:44:38;;;;;;;5.97;4.75;;;;;;;1.10;68.62;95052.31;5053427;28;20899;-77
2021/12/21 02:47:06;;;;;;;12.48;3.85;;;;;;;1.05;68.03;95053.44;5053141;28;20728;-77
2021/12/21 02:49:32;;;;;;;4.15;3.85;;;;;;;1.08;67.97;95058.47;5053712;28;20211;-77
2021/12/21 02:52:00;;;;;;;6.47;3.90;;;;;;;1.05;68.40;95053.44;5018265;28;20203;-77
2021/12/21 02:54:28;;;;;;;4.57;3.60;;;;;;;1.05;69.45;95050.84;5053872;28;20245;-77
2021/12/21 02:56:55;;;;;;;3.53;3.22;;;;;;;1.04;68.77;95054.34;5053217;28;20672;-78
2021/12/21 02:59:22;;;;;;;5.20;4.75;;;;;;;1.10;68.71;95059.22;5052977;28;20559;-77
2021/12/21 03:01:49;;;;;;;5.15;4.00;;;;;;;1.07;69.05;95060.22;5053113;28;20533;-77
2021/12/21 03:04:16;;;;;;;3.67;3.38;;;;;;;1.08;68.82;95064.47;5053144;28;20577;-77
2021/12/21 03:12:31;;;;;;;5.03;3.95;;;;;;;1.17;69.05;95065.81;5051271;28;20352;-77
2021/12/21 03:14:57;;;;;;;3.65;3.45;;;;;;;1.15;69.11;95076.19;5053031;28;20291;-77
2021/12/21 03:17:24;;;;;;;3.75;3.45;;;;;;;1.17;68.83;95071.84;5053171;28;20206;-77
2021/12/21 03:19:51;;;;;;;4.13;3.72;;;;;;;1.20;68.62;95081.19;5053603;28;20195;-77
2021/12/21 03:22:18;;;;;;;4.03;3.63;;;;;;;1.12;68.50;95084.09;5053434;28;20244;-77
2021/12/21 03:24:45;;;;;;;4.82;4.32;;;;;;;1.12;68.74;95078.09;5053379;28;20302;-77
2021/12/21 03:27:14;;;;;;;7.60;4.38;;;;;;;1.16;68.49;95087.41;5052798;28;20272;-77
2021/12/21 03:29:41;;;;;;;5.28;4.05;;;;;;;1.11;68.36;95087.59;5053197;28;20195;-77
2021/12/21 03:32:09;;;;;;;4.65;4.25;;;;;;;1.14;67.99;95084.88;5052920;28;20201;-78
2021/12/21 03:34:35;;;;;;;6.30;4.18;;;;;;;1.25;67.97;95084.41;5051245;28;20214;-77
2021/12/21 03:37:04;;;;;;;7.78;5.32;;;;;;;1.29;68.58;95083.34;5053151;28;20203;-78
2021/12/21 03:39:31;;;;;;;7.03;4.88;;;;;;;1.29;67.22;95079.91;5053505;28;20213;-77
2021/12/21 03:42:00;;;;;;;5.20;4.70;;;;;;;1.34;66.79;95083.13;5052937;28;20198;-78
2021/12/21 03:44:28;;;;;;;6.32;5.13;;;;;;;1.35;66.53;95092.56;5052720;28;20218;-77
2021/12/21 03:46:56;;;;;;;7.43;5.07;;;;;;;1.30;66.49;95085.03;5056210;28;20187;-77
2021/12/21 03:52:14;;;;;;;3.75;3.45;;;;;;;1.37;64.97;95091.59;5056176;28;20185;-77
2021/12/21 03:54:43;;;;;;;4.05;2.75;;;;;;;1.37;64.63;95108.84;5056280;28;20218;-77
2021/12/21 03:57:10;;;;;;;3.58;3.28;;;;;;;1.40;64.37;95100.94;5056018;28;20190;-78
2021/12/21 03:59:41;;;;;;;4.00;3.10;;;;;;;1.32;64.06;95108.22;5056694;28;20194;-77
2021/12/21 04:02:10;;;;;;;4.25;3.83;;;;;;;1.28;63.72;95117.03;5056558;28;20229;-78
2021/12/21 04:04:38;;;;;;;4.72;2.90;;;;;;;1.17;63.79;95122.69;5056384;28;20218;-77
2021/12/21 04:07:05;;;;;;;3.40;2.92;;;;;;;1.15;64.10;95130.47;5056243;28;20191;-77
2021/12/21 04:09:34;;;;;;;3.15;2.83;;;;;;;1.19;63.83;95115.69;5055819;28;20557;-77
2021/12/21 04:12:01;;;;;;;3.13;2.88;;;;;;;1.23;63.82;95127.56;5055810;28;20205;-77
2021/12/21 04:14:32;;;;;;;2.92;2.30;;;;;;;1.16;63.06;95121.84;5055675;28;20255;-78
2021/12/21 04:17:00;;;;;;;3.92;2.90;;;;;;;1.17;63.69;95128.69;5056530;28;20204;-77
2021/12/21 04:19:27;;;;;;;3.95;3.13;;;;;;;1.18;63.67;95129.53;5053870;28;20206;-78
2021/12/21 04:21:54;;;;;;;4.68;3.28;;;;;;;1.20;63.99;95117.38;5055543;28;20237;-77
2021/12/21 04:24:21;;;;;;;4.65;3.40;;;;;;;1.27;63.58;95125.69;5055708;28;20282;-78
2021/12/21 04:26:48;;;;;;;3.78;3.20;;;;;;;1.34;63.91;95129.66;5055633;28;20203;-77
2021/12/21 04:29:15;;;;;;;9.00;5.07;;;;;;;1.31;63.02;95134.97;5055416;28;20203;-77
2021/12/21 04:31:42;;;;;;;4.38;3.53;;;;;;;1.27;65.07;95138.59;5055316;28;20187;-77
2021/12/21 04:34:10;;;;;;;4.65;3.55;;;;;;;1.31;63.81;95127.22;5055252;28;20198;-78
2021/12/21 04:36:38;;;;;;;3.60;3.30;;;;;;;1.36;64.44;95128.69;5055345;28;20213;-77
2021/12/21 04:39:15;;;;;;;2.72;2.53;;;;;;;1.37;63.46;95121.75;5055350;28;20962;-77
2021/12/21 04:41:43;;;;;;;3.47;2.70;;;;;;;1.31;62.85;95119.47;5055319;28;20642;-77
2021/12/21 04:44:11;;;;;;;2.63;2.40;;;;;;;1.26;62.88;95124.00;5055281;28;20194;-77
2021/12/21 04:46:38;;;;;;;3.55;3.35;;;;;;;1.32;63.20;95126.31;5055065;28;20186;-77
2021/12/21 04:49:05;;;;;;;5.47;3.55;;;;;;;1.41;62.93;95121.53;5037004;28;20204;-77
2021/12/21 04:51:33;;;;;;;5.05;4.55;;;;;;;1.32;62.28;95121.97;5054657;28;20223;-78
2021/12/21 04:54:00;;;;;;;4.18;3.78;;;;;;;1.26;62.18;95118.84;5054260;28;20219;-78
2021/12/21 04:56:27;;;;;;;3.08;2.88;;;;;;;1.29;62.20;95121.28;5054670;28;20189;-77
2021/12/21 04:58:54;;;;;;;3.37;3.07;;;;;;;1.26;61.83;95131.75;5036872;28;20199;-78
2021/12/21 05:01:23;;;;;;;3.50;2.80;;;;;;;1.24;63.43;95134.41;5055049;28;20433;-78
2021/12/21 05:03:50;;;;;;;3.80;3.50;;;;;;;1.22;62.34;95126.72;5055884;28;20199;-78
2021/12/21 05:06:19;;;;;;;4.25;3.05;;;;;;;1.20;62.65;95123.38;5054630;28;20682;-80
2021/12/21 05:08:53;;;;;;;2.83;2.30;;;;;;;1.10;62.76;95135.00;5054876;28;20207;-79
2021/12/21 05:11:21;;;;;;;2.78;2.53;;;;;;;1.05;64.01;95134.38;5054805;28;20200;-82
2021/12/21 05:13:48;;;;;;;2.72;2.53;;;;;;;0.99;61.66;95128.66;5055379;28;20202;-81
2021/12/21 05:16:15;;;;;;;4.20;2.65;;;;;;;1.07;69.80;95136.91;5054719;28;20202;-79
2021/12/21 05:18:41;;;;;;;4.30;2.72;;;;;;;1.12;65.98;95140.94;5055232;28;20183;-80
2021/12/21 05:21:08;;;;;;;3.00;2.70;;;;;;;1.13;64.38;95142.63;5054657;28;20238;-80
2021/12/21 05:23:35;;;;;;;3.90;3.60;;;;;;;1.19;64.05;95137.22;5058522;28;20574;-80
2021/12/21 05:26:03;;;;;;;14.35;5.82;;;;;;;1.22;62.77;95151.75;5046138;28;20226;-80
2021/12/21 05:28:30;;;;;;;6.20;4.40;;;;;;;1.14;65.93;95153.78;5054596;28;20218;-81
2021/12/21 05:30:57;;;;;;;7.75;5.40;;;;;;;1.13;63.48;95150.38;5054409;28;20457;-80
2021/12/21 05:33:26;;;;;;;6.32;4.55;;;;;;;1.14;63.22;95148.63;5054843;28;20187;-80
2021/12/21 05:35:53;;;;;;;5.13;4.73;;;;;;;1.12;63.72;95160.78;5054954;28;20210;-78
2021/12/21 05:38:29;;;;;;;3.83;3.45;;;;;;;1.07;63.63;95158.41;5054365;28;20442;-79
2021/12/21 05:40:58;;;;;;;5.75;3.53;;;;;;;1.08;63.56;95160.06;5054829;28;20676;-79
2021/12/21 05:43:26;;;;;;;3.13;2.83;;;;;;;0.97;62.53;95158.88;5054469;28;20695;-80
2021/12/21 05:45:53;;;;;;;5.22;4.00;;;;;;;0.97;65.41;95167.47;5054039;28;20229;-80
2021/12/21 05:48:41;;;;;;;7.05;4.32;;;;;;;1.02;63.62;95181.03;5054470;28;20202;-80
2021/12/21 05:51:08;;;;;;;4.07;3.20;;;;;;;0.97;64.21;95182.97;5054482;28;20193;-79
2021/12/21 05:53:35;;;;;;;4.38;3.97;;;;;;;0.93;62.93;95177.09;5054444;28;20191;-80
2021/12/21 05:56:02;;;;;;;6.45;4.88;;;;;;;1.01;63.58;95179.34;5054345;28;20199;-80
2021/12/21 05:58:30;;;;;;;10.85;3.53;;;;;;;0.97;65.84;95182.97;5053891;28;20202;-80
2021/12/21 06:00:57;;;;;;;7.55;4.30;;;;;;;0.97;64.18;95184.72;5054385;28;20196;-80
2021/12/21 06:03:24;;;;;;;5.10;3.70;;;;;;;1.00;65.13;95188.00;5054226;28;20196;-80
2021/12/21 06:05:51;;;;;;;7.38;4.40;;;;;;;1.01;64.01;95189.69;5035192;28;20224;-80
2021/12/21 06:08:21;;;;;;;3.85;3.38;;;;;;;1.02;64.05;95190.53;5053367;28;20199;-81
2021/12/21 06:10:50;;;;;;;4.65;3.47;;;;;;;1.09;66.76;95194.50;5053907;28;20224;-80
2021/12/21 06:13:39;;;;;;;6.55;4.43;;;;;;;1.14;65.76;95208.06;5053754;28;20197;-80
2021/12/21 06:27:01;;;;;;;5.45;4.22;;;;;;;1.10;66.26;95224.59;4962586;28;20415;-80
2021/12/21 06:29:29;;;;;;;6.45;4.43;;;;;;;1.08;64.77;95227.25;4991350;28;20205;-81
2021/12/21 06:31:57;;;;;;;9.60;5.97;;;;;;;1.20;65.07;95231.09;4991909;28;20209;-80
2021/12/21 06:34:24;;;;;;;5.85;4.22;;;;;;;1.24;64.42;95238.63;4992382;28;20216;-80
2021/12/21 06:36:52;;;;;;;3.60;3.30;;;;;;;1.24;64.43;95238.63;4992124;28;20209;-79
2021/12/21 06:39:19;;;;;;;7.18;4.45;;;;;;;1.31;64.29;95238.38;4991664;28;20697;-80
2021/12/21 06:41:47;;;;;;;4.30;3.90;;;;;;;1.32;64.20;95237.47;4943822;28;20204;-79
2021/12/21 06:44:16;;;;;;;3.25;2.95;;;;;;;1.33;64.73;95242.56;4991338;28;20215;-79
2021/12/21 06:46:52;;;;;;;9.25;4.75;;;;;;;1.28;64.53;95244.50;4991572;28;20237;-80
2021/12/21 06:52:09;;;;;;;6.35;4.55;;;;;;;1.36;66.26;95254.50;4989448;28;20343;-80
2021/12/21 06:54:37;;;;;;;11.00;5.87;;;;;;;1.35;66.59;95260.59;4928300;28;20201;-80
2021/12/21 06:57:04;;;;;;;5.97;4.90;;;;;;;1.39;66.39;95267.31;5045775;28;20443;-80
2021/12/21 06:59:32;;;;;;;11.57;5.50;;;;;;;1.36;66.29;95267.44;5052549;28;21191;-80
2021/12/21 07:01:59;;;;;;;6.68;4.72;;;;;;;1.24;71.29;95254.16;5052089;28;20503;-81
2021/12/21 07:04:28;;;;;;;9.30;5.60;;;;;;;1.17;67.75;95268.25;5052220;28;20206;-80
2021/12/21 07:06:57;;;;;;;3.72;3.35;;;;;;;1.19;66.19;95278.50;5055916;28;20772;-80
2021/12/21 07:09:32;;;;;;;7.85;6.30;;;;;;;1.23;66.50;95280.91;5053444;28;20191;-80
2021/12/21 07:12:17;;;;;;;7.00;4.50;;;;;;;1.33;66.52;95283.09;5053267;28;20297;-80
2021/12/21 07:18:08;;;;;;;7.28;6.15;;;;;;;1.46;66.07;95290.28;5053125;28;20182;-81
2021/12/21 07:20:37;;;;;;;5.60;5.10;;;;;;;1.52;66.19;95289.16;5056621;28;20183;-81
2021/12/21 07:23:05;;;;;;;13.60;7.93;;;;;;;1.56;65.63;95293.28;5057131;28;20257;-80
2021/12/21 07:25:32;;;;;;;9.27;5.63;;;;;;;1.54;64.82;95298.53;5056861;28;20226;-79
2021/12/21 07:27:59;;;;;;;5.65;5.15;;;;;;;1.67;66.61;95306.59;5057145;28;20553;-80
2021/12/21 07:30:26;;;;;;;9.02;4.32;;;;;;;1.54;66.69;95290.78;5022264;28;20294;-80
2021/12/21 07:32:53;;;;;;;12.73;5.18;;;;;;;1.61;65.42;95298.25;5022042;28;20198;-80
2021/12/21 07:35:20;;;;;;;6.85;5.00;;;;;;;1.48;64.57;95297.97;5056101;28;20210;-80
2021/12/21 07:37:48;;;;;;;5.10;4.05;;;;;;;1.53;65.05;95307.19;5055378;28;20214;-80
2021/12/21 07:40:15;;;;;;;8.52;4.78;;;;;;;1.55;64.46;95307.97;5055884;28;20205;-80
2021/12/21 07:42:42;;;;;;;9.45;4.63;;;;;;;1.56;63.61;95311.38;5055802;28;20199;-80
2021/12/21 07:45:10;;;;;;;4.25;3.33;;;;;;;1.59;65.15;95307.81;5056148;28;20227;-80
2021/12/21 07:47:38;;;;;;;13.90;5.32;;;;;;;1.55;65.03;95307.97;5055715;28;20199;-80
2021/12/21 07:50:06;;;;;;;6.50;3.92;;;;;;;1.52;64.91;95315.84;5055608;28;20198;-80
2021/12/21 07:52:34;;;;;;;9.05;7.28;;;;;;;1.54;64.29;95311.47;5056031;28;20326;-80
2021/12/21 07:55:02;;;;;;;8.65;6.28;;;;;;;1.53;65.88;95322.72;5056151;28;20285;-80
2021/12/21 07:57:31;;;;;;;3.67;3.38;;;;;;;1.61;69.76;95314.63;5056521;28;20199;-80
2021/12/21 08:00:01;;;;;;;5.40;4.03;;;;;;;1.60;64.82;95327.63;5056232;28;20202;-81
2021/12/21 08:02:28;;;;;;;6.15;5.00;;;;;;;1.55;66.42;95317.47;5055710;28;20203;-80
2021/12/21 08:04:56;;;;;;;6.75;4.13;;;;;;;1.53;65.30;95317.53;5037320;28;20206;-80
2021/12/21 08:07:29;;;;;;;7.03;5.03;;;;;;;1.58;64.98;95319.91;5055828;28;20218;-80
2021/12/21 08:09:58;;;;;;;7.80;4.22;;;;;;;1.62;66.22;95323.22;5056168;28;20568;-78
2021/12/21 08:12:27;;;;;;;9.10;4.20;;;;;;;1.65;64.37;95328.25;5056476;28;20791;-80
2021/12/21 08:14:54;;;;;;;3.15;2.85;;;;;;;1.52;65.07;95315.03;5042985;28;20447;-80
2021/12/21 08:17:21;;;;;;;4.10;3.70;;;;;;;1.61;64.15;95322.38;5057679;28;20221;-79
2021/12/21 08:19:48;;;;;;;6.70;3.80;;;;;;;1.69;64.07;95324.63;5057504;28;20187;-80
2021/12/21 08:22:15;;;;;;;7.95;3.90;;;;;;;1.71;64.47;95333.16;5056980;28;20233;-80
2021/12/21 08:24:43;;;;;;;7.22;5.97;;;;;;;1.78;65.97;95342.34;5037750;28;20195;-80
2021/12/21 08:27:10;;;;;;;3.42;3.13;;;;;;;1.80;65.61;95335.38;5056510;28;20246;-79
2021/12/21 08:29:39;;;;;;;4.97;3.97;;;;;;;1.82;64.09;95347.31;5056958;28;20190;-80
2021/12/21 08:32:07;;;;;;;3.30;3.00;;;;;;;1.88;63.43;95345.38;5055497;28;20273;-80
2021/12/21 08:34:34;;;;;;;8.40;4.67;;;;;;;2.02;63.32;95355.94;5056367;28;20203;-80
2021/12/21 08:37:02;;;;;;;4.03;3.63;;;;;;;1.88;63.28;95358.31;5057782;28;20434;-80
2021/12/21 08:39:37;;;;;;;7.57;5.53;;;;;;;1.84;63.39;95355.84;5056906;28;20437;-80
2021/12/21 08:42:05;;;;;;;4.10;3.20;;;;;;;1.81;64.97;95353.41;5056422;28;20214;-80
2021/12/21 08:44:32;;;;;;;5.15;4.65;;;;;;;1.87;65.93;95344.53;5020259;28;20290;-80
2021/12/21 08:47:00;;;;;;;9.13;4.70;;;;;;;1.90;63.01;95349.56;5055168;28;20237;-80
2021/12/21 08:49:27;;;;;;;7.93;4.90;;;;;;;1.90;63.08;95335.78;5054984;28;20282;-80
2021/12/21 08:51:55;;;;;;;7.53;3.53;;;;;;;1.95;65.13;95354.53;5054765;28;20198;-81
2021/12/21 08:54:22;;;;;;;7.25;4.50;;;;;;;1.95;63.43;95359.72;5054492;28;20199;-80
2021/12/21 08:56:49;;;;;;;5.50;3.83;;;;;;;1.95;62.66;95359.72;5054406;28;20206;-80
2021/12/21 08:59:16;;;;;;;9.43;6.13;;;;;;;2.05;63.11;95346.31;5055054;28;20235;-80
2021/12/21 09:01:43;;;;;;;9.13;6.27;;;;;;;2.21;62.79;95350.81;5056517;28;20202;-80
2021/12/21 09:04:14;;;;;;;15.40;5.60;;;;;;;2.32;63.03;95349.44;5054765;28;20939;-80
2021/12/21 09:06:41;;;;;;;7.88;4.07;;;;;;;2.33;61.84;95355.44;5054975;28;20488;-81
2021/12/21 09:09:09;;;;;;;4.82;4.18;;;;;;;2.36;62.18;95356.13;5054755;28;20199;-80
2021/12/21 09:11:37;;;;;;;5.40;4.67;;;;;;;2.54;61.32;95361.38;5054920;28;20566;-80
2021/12/21 09:14:04;;;;;;;4.50;3.10;;;;;;;2.43;60.26;95344.59;5054319;28;20989;-80
2021/12/21 09:16:31;;;;;;;3.85;3.20;;;;;;;2.34;58.56;95360.56;5054293;28;20195;-80
2021/12/21 09:18:58;;;;;;;5.25;3.15;;;;;;;2.30;57.93;95358.97;5054598;28;20203;-80
2021/12/21 09:21:26;;;;;;;3.33;2.80;;;;;;;2.13;58.41;95361.50;5054950;28;20693;-80
2021/12/21 09:23:53;;;;;;;4.40;3.03;;;;;;;1.95;59.83;95362.31;5054781;28;20457;-80
2021/12/21 09:26:20;;;;;;;4.03;3.43;;;;;;;1.97;59.87;95363.06;5054604;28;20477;-81
2021/12/21 09:28:47;;;;;;;4.38;3.25;;;;;;;1.93;60.52;95356.34;5055316;28;20445;-81
2021/12/21 09:31:17;;;;;;;5.20;4.10;;;;;;;1.88;60.77;95363.47;5054976;28;20201;-80
2021/12/21 09:33:44;;;;;;;4.55;3.85;;;;;;;1.94;60.58;95360.63;5055095;28;20453;-80
2021/12/21 09:36:12;;;;;;;4.00;3.30;;;;;;;1.94;60.05;95363.22;5054595;28;20210;-80
2021/12/21 09:38:41;;;;;;;13.70;9.53;;;;;;;2.05;60.02;95350.66;5053639;28;20650;-80
2021/12/21 09:41:08;;;;;;;4.53;3.57;;;;;;;2.20;62.89;95352.56;5053685;28;20481;-80
2021/12/21 09:43:35;;;;;;;5.15;3.35;;;;;;;2.23;58.09;95356.75;5053612;28;20809;-80
2021/12/21 09:46:01;;;;;;;5.80;4.27;;;;;;;2.20;57.60;95359.47;5054271;28;20226;-80
2021/12/21 09:48:30;;;;;;;7.07;5.03;;;;;;;2.23;59.17;95357.59;5053855;28;20445;-80
2021/12/21 09:50:59;;;;;;;9.15;5.70;;;;;;;2.11;59.78;95358.16;5053839;28;20461;-80
2021/12/21 09:53:27;;;;;;;9.17;5.70;;;;;;;2.16;59.31;95361.38;5054235;28;20198;-80
2021/12/21 09:55:55;;;;;;;7.27;3.93;;;;;;;2.20;59.79;95349.13;5053693;28;20456;-80
2021/12/21 09:58:22;;;;;;;5.53;3.73;;;;;;;2.21;60.23;95362.00;5053251;28;20516;-81
2021/12/21 10:00:50;;;;;;;4.83;3.80;;;;;;;2.12;59.38;95357.22;5052814;28;20460;-80
2021/12/21 10:03:17;;;;;;;4.67;4.27;;;;;;;1.97;57.94;95363.91;5052519;28;20441;-80
2021/12/21 10:05:45;;;;;;;4.60;4.07;;;;;;;1.86;58.91;95361.81;5052579;28;20441;-80
2021/12/21 10:08:15;;;;;;;4.28;3.80;;;;;;;1.88;61.71;95363.47;5052726;28;20211;-80
2021/12/21 10:10:43;;;;;;;4.10;3.63;;;;;;;1.92;63.35;95359.84;5054901;28;20203;-80
2021/12/21 10:13:14;;;;;;;4.03;3.63;;;;;;;2.01;59.66;95359.44;5052743;28;20453;-80
2021/12/21 10:15:44;;;;;;;4.63;3.70;;;;;;;2.15;58.81;95359.69;5052626;28;20446;-80
2021/12/21 10:18:12;;;;;;;10.10;5.05;;;;;;;2.21;57.98;95355.97;5053065;28;20449;-80
2021/12/21 10:20:43;;;;;;;6.88;4.75;;;;;;;2.23;56.51;95347.22;5053591;28;20210;-80
2021/12/21 10:23:12;;;;;;;8.23;3.92;;;;;;;2.28;57.09;95347.84;5034963;28;20276;-80
2021/12/21 10:25:46;;;;;;;3.50;2.70;;;;;;;2.34;60.18;95360.56;5053438;28;20205;-80
2021/12/21 10:28:26;;;;;;;3.97;3.65;;;;;;;2.31;56.11;95359.81;5053391;28;20536;-80
2021/12/21 10:30:54;;;;;;;8.50;3.50;;;;;;;2.18;60.04;95352.63;5054022;28;20205;-80
2021/12/21 10:33:23;;;;;;;6.65;4.95;;;;;;;2.34;61.06;95355.38;5053969;28;20876;-80
2021/12/21 10:35:51;;;;;;;3.67;3.37;;;;;;;2.33;59.47;95358.88;5053466;28;20198;-80
2021/12/21 10:38:29;;;;;;;5.00;3.27;;;;;;;2.39;56.95;95357.75;5053230;28;20450;-80
2021/12/21 10:40:59;;;;;;;3.00;2.80;;;;;;;2.33;57.11;95358.88;5052995;28;20958;-80
2021/12/21 10:43:29;;;;;;;4.90;4.00;;;;;;;2.12;57.55;95359.81;5053006;28;20500;-81
2021/12/21 10:45:56;;;;;;;8.25;5.68;;;;;;;2.06;60.44;95358.34;5052441;28;20198;-80
2021/12/21 10:48:23;;;;;;;6.10;4.67;;;;;;;2.07;59.19;95360.03;5052748;28;20202;-80
2021/12/21 10:50:52;;;;;;;8.40;4.57;;;;;;;2.08;59.00;95361.72;5052575;28;20449;-80
2021/12/21 10:53:23;;;;;;;4.20;3.80;;;;;;;2.22;58.42;95371.44;5052164;28;20548;-80
2021/12/21 10:56:00;;;;;;;3.43;3.20;;;;;;;2.20;58.57;95373.25;5056071;28;20823;-80
2021/12/21 10:58:30;;;;;;;6.65;3.67;;;;;;;2.15;57.79;95368.28;5056983;28;20498;-80
2021/12/21 11:01:01;;;;;;;4.40;3.30;;;;;;;2.12;58.74;95358.06;5059144;28;20213;-81
2021/12/21 11:03:36;;;;;;;5.82;3.53;;;;;;;2.13;59.35;95359.75;5057494;28;20186;-80
2021/12/21 11:06:11;;;;;;;3.77;3.43;;;;;;;2.16;57.71;95361.38;5056174;28;20291;-80
2021/12/21 11:08:39;;;;;;;6.20;5.50;;;;;;;2.26;58.34;95360.03;5056622;28;20498;-80
2021/12/21 11:11:10;;;;;;;4.10;3.70;;;;;;;2.39;58.57;95353.41;5056435;28;20804;-79
2021/12/21 11:13:39;;;;;;;5.10;3.83;;;;;;;2.53;58.43;95351.94;5056037;28;20460;-80
2021/12/21 11:16:07;;;;;;;4.70;4.13;;;;;;;2.63;57.65;95364.41;5056140;28;20454;-80
2021/12/21 11:18:40;;;;;;;3.73;3.43;;;;;;;2.77;55.70;95364.59;5055649;28;20938;-79
2021/12/21 11:21:10;;;;;;;4.40;3.63;;;;;;;2.76;55.25;95360.31;5055654;28;20472;-79
2021/12/21 11:23:39;;;;;;;3.77;3.03;;;;;;;2.69;54.57;95361.53;5055892;28;20449;-79
2021/12/21 11:26:09;;;;;;;8.27;4.50;;;;;;;2.54;59.03;95356.19;5055823;28;20441;-80
2021/12/21 11:28:37;;;;;;;8.57;5.30;;;;;;;2.38;55.75;95369.03;5055837;28;20472;-80
2021/12/21 11:31:06;;;;;;;7.10;4.60;;;;;;;2.15;58.78;95342.41;5055685;28;20445;-80
2021/12/21 11:33:40;;;;;;;8.50;5.55;;;;;;;1.99;58.65;95345.72;5055915;28;20448;-79
2021/12/21 11:39:06;;;;;;;9.07;5.10;;;;;;;1.95;60.20;95339.84;5013568;28;20419;-80
2021/12/21 11:41:33;;;;;;;6.70;4.60;;;;;;;2.05;59.15;95338.56;4980604;28;20455;-79
2021/12/21 11:44:07;;;;;;;3.92;3.30;;;;;;;2.04;55.65;95348.97;5013229;28;20219;-79
2021/12/21 11:46:50;;;;;;;3.90;3.60;;;;;;;1.89;54.96;95345.31;5013556;28;20717;-80
2021/12/21 11:49:23;;;;;;;3.80;3.30;;;;;;;1.82;56.79;95347.31;5013524;28;20972;-80
2021/12/21 11:51:50;;;;;;;4.20;3.47;;;;;;;1.81;53.64;95349.97;5013134;28;20434;-81
2021/12/21 11:54:19;;;;;;;6.05;4.75;;;;;;;1.88;54.06;95348.78;5013228;28;20205;-79
2021/12/21 11:56:46;;;;;;;7.13;4.20;;;;;;;2.00;59.56;95352.59;5013320;28;20196;-80
2021/12/21 11:59:21;;;;;;;5.77;4.23;;;;;;;2.08;54.66;95355.69;5013235;28;20446;-80
2021/12/21 12:01:49;;;;;;;3.37;2.70;;;;;;;2.10;54.32;95349.53;5013221;28;20501;-80
2021/12/21 12:04:16;;;;;;;6.45;4.15;;;;;;;2.12;54.91;95354.66;5012975;28;20458;-80
2021/12/21 12:06:46;;;;;;;10.10;4.88;;;;;;;2.31;54.20;95342.53;5011607;28;20231;-80
2021/12/21 12:09:23;;;;;;;6.20;3.73;;;;;;;2.40;53.72;95344.72;5012844;28;20738;-80
2021/12/21 12:12:07;;;;;;;8.30;3.53;;;;;;;2.52;53.72;95345.91;5012982;28;20443;-80
2021/12/21 12:14:37;;;;;;;3.53;3.20;;;;;;;2.63;52.59;95353.19;5055437;28;20441;-80
2021/12/21 12:17:14;;;;;;;6.93;3.77;;;;;;;2.71;53.62;95353.69;5054846;28;20213;-81
2021/12/21 12:19:43;;;;;;;4.10;3.80;;;;;;;2.81;53.54;95357.50;5054948;28;20441;-80
2021/12/21 12:22:15;;;;;;;4.70;4.20;;;;;;;2.73;53.63;95359.63;5054963;28;20572;-79
2021/12/21 12:24:47;;;;;;;3.57;3.27;;;;;;;2.75;53.28;95368.16;5054736;28;20456;-80
2021/12/21 12:27:20;;;;;;;5.77;4.13;;;;;;;2.84;55.44;95372.06;5054356;28;20499;-79